sensor_id;sensor_type;location;lat;lon;timestamp;P1;durP1;ratioP1;P2;durP2;ratioP2
21251;SDS011;10784;50.578;17.878;2022-10-16T04:47:45;31.00;;;13.70;;
21251;SDS011;10784;50.578;17.878;2022-10-16T04:50:18;26.45;;;12.32;;
21251;SDS011;10784;50.578;17.878;2022-10-16T04:53:05;24.53;;;11.30;;
21251;SDS011;10784;50.578;17.878;2022-10-16T04:55:40;26.07;;;10.67;;
21251;SDS011;10784;50.578;17.878;2022-10-16T04:58:13;27.58;;;11.90;;
21251;SDS011;10784;50.578;17.878;2022-10-16T05:00:46;21.67;;;10.80;;
21251;SDS011;10784;50.578;17.878;2022-10-16T17:03:37;14.40;;;7.53;;
21251;SDS011;10784;50.578;17.878;2022-10-16T17:06:11;13.93;;;7.65;;
21251;SDS011;10784;50.578;17.878;2022-10-16T17:08:44;14.43;;;8.50;;
21251;SDS011;10784;50.578;17.878;2022-10-16T17:11:18;18.00;;;8.20;;
21251;SDS011;10784;50.578;17.878;2022-10-16T17:13:53;18.30;;;9.20;;
21251;SDS011;10784;50.578;17.878;2022-10-16T17:16:32;15.98;;;8.57;;
21251;SDS011;10784;50.578;17.878;2022-10-16T17:19:07;15.40;;;8.25;;
21251;SDS011;10784;50.578;17.878;2022-10-16T17:21:40;13.40;;;7.37;;
21251;SDS011;10784;50.578;17.878;2022-10-16T17:24:13;14.63;;;7.65;;
21251;SDS011;10784;50.578;17.878;2022-10-16T17:26:46;17.65;;;8.60;;
21251;SDS011;10784;50.578;17.878;2022-10-16T17:29:20;16.42;;;8.15;;
21251;SDS011;10784;50.578;17.878;2022-10-16T17:31:54;16.58;;;9.02;;
21251;SDS011;10784;50.578;17.878;2022-10-16T17:34:28;17.75;;;9.07;;
21251;SDS011;10784;50.578;17.878;2022-10-16T17:37:01;15.33;;;8.77;;
21251;SDS011;10784;50.578;17.878;2022-10-16T17:39:33;16.67;;;8.43;;
21251;SDS011;10784;50.578;17.878;2022-10-16T17:42:06;15.18;;;8.05;;
21251;SDS011;10784;50.578;17.878;2022-10-16T17:44:39;15.50;;;8.55;;
21251;SDS011;10784;50.578;17.878;2022-10-16T17:47:11;17.27;;;9.40;;
21251;SDS011;10784;50.578;17.878;2022-10-16T17:49:44;17.58;;;9.50;;
21251;SDS011;10784;50.578;17.878;2022-10-16T17:52:17;18.85;;;9.38;;
21251;SDS011;10784;50.578;17.878;2022-10-16T17:54:50;17.73;;;9.03;;
21251;SDS011;10784;50.578;17.878;2022-10-16T17:57:23;16.65;;;8.35;;
21251;SDS011;10784;50.578;17.878;2022-10-16T17:59:56;14.38;;;8.23;;
21251;SDS011;10784;50.578;17.878;2022-10-16T18:02:29;18.40;;;9.52;;
21251;SDS011;10784;50.578;17.878;2022-10-16T18:05:02;15.07;;;7.53;;
21251;SDS011;10784;50.578;17.878;2022-10-16T18:07:37;15.90;;;8.20;;
21251;SDS011;10784;50.578;17.878;2022-10-16T18:10:12;14.40;;;7.95;;
21251;SDS011;10784;50.578;17.878;2022-10-16T18:12:50;13.70;;;8.02;;
21251;SDS011;10784;50.578;17.878;2022-10-16T18:15:23;14.98;;;8.25;;
21251;SDS011;10784;50.578;17.878;2022-10-16T18:17:56;17.80;;;8.40;;
21251;SDS011;10784;50.578;17.878;2022-10-16T18:20:29;16.48;;;8.18;;
21251;SDS011;10784;50.578;17.878;2022-10-16T18:23:01;17.90;;;8.80;;
21251;SDS011;10784;50.578;17.878;2022-10-16T18:25:34;16.30;;;9.05;;
21251;SDS011;10784;50.578;17.878;2022-10-16T18:28:06;16.42;;;8.70;;
21251;SDS011;10784;50.578;17.878;2022-10-16T18:30:39;16.02;;;8.32;;
21251;SDS011;10784;50.578;17.878;2022-10-16T18:33:12;13.88;;;7.50;;
21251;SDS011;10784;50.578;17.878;2022-10-16T18:35:45;17.63;;;8.43;;
21251;SDS011;10784;50.578;17.878;2022-10-16T18:38:17;17.40;;;8.85;;
21251;SDS011;10784;50.578;17.878;2022-10-16T18:40:50;17.23;;;8.70;;
21251;SDS011;10784;50.578;17.878;2022-10-16T18:43:23;17.15;;;8.10;;
21251;SDS011;10784;50.578;17.878;2022-10-16T18:45:57;15.98;;;8.25;;
21251;SDS011;10784;50.578;17.878;2022-10-16T18:48:30;15.50;;;7.93;;
21251;SDS011;10784;50.578;17.878;2022-10-16T18:53:40;15.45;;;8.65;;
21251;SDS011;10784;50.578;17.878;2022-10-16T18:56:16;14.75;;;8.05;;
21251;SDS011;10784;50.578;17.878;2022-10-16T18:58:49;16.63;;;7.95;;
21251;SDS011;10784;50.578;17.878;2022-10-16T19:01:22;15.30;;;8.35;;
21251;SDS011;10784;50.578;17.878;2022-10-16T19:03:57;16.83;;;7.95;;
21251;SDS011;10784;50.578;17.878;2022-10-16T19:06:32;13.95;;;7.57;;
21251;SDS011;10784;50.578;17.878;2022-10-16T19:09:05;16.45;;;8.50;;
21251;SDS011;10784;50.578;17.878;2022-10-16T19:11:40;15.52;;;8.23;;
21251;SDS011;10784;50.578;17.878;2022-10-16T19:14:13;17.60;;;8.50;;
21251;SDS011;10784;50.578;17.878;2022-10-16T19:16:46;16.83;;;8.63;;
21251;SDS011;10784;50.578;17.878;2022-10-16T19:19:20;16.85;;;8.05;;
21251;SDS011;10784;50.578;17.878;2022-10-16T19:21:54;16.42;;;8.40;;
21251;SDS011;10784;50.578;17.878;2022-10-16T19:24:43;16.63;;;8.32;;
21251;SDS011;10784;50.578;17.878;2022-10-16T19:27:15;15.40;;;8.68;;
21251;SDS011;10784;50.578;17.878;2022-10-16T19:29:48;18.73;;;9.00;;
21251;SDS011;10784;50.578;17.878;2022-10-16T19:32:21;17.00;;;8.52;;
21251;SDS011;10784;50.578;17.878;2022-10-16T19:34:53;15.65;;;7.55;;
21251;SDS011;10784;50.578;17.878;2022-10-16T19:37:28;13.85;;;7.88;;
21251;SDS011;10784;50.578;17.878;2022-10-16T19:40:01;14.33;;;8.40;;
21251;SDS011;10784;50.578;17.878;2022-10-16T19:42:34;18.77;;;8.85;;
21251;SDS011;10784;50.578;17.878;2022-10-16T19:45:08;18.83;;;9.00;;
21251;SDS011;10784;50.578;17.878;2022-10-16T19:47:41;17.27;;;8.37;;
21251;SDS011;10784;50.578;17.878;2022-10-16T19:50:15;16.35;;;8.63;;
21251;SDS011;10784;50.578;17.878;2022-10-16T19:52:48;18.15;;;8.80;;
21251;SDS011;10784;50.578;17.878;2022-10-16T19:55:21;16.45;;;8.85;;
21251;SDS011;10784;50.578;17.878;2022-10-16T19:57:54;16.13;;;8.65;;
21251;SDS011;10784;50.578;17.878;2022-10-16T20:00:27;18.40;;;8.40;;
21251;SDS011;10784;50.578;17.878;2022-10-16T20:02:59;15.80;;;8.10;;
21251;SDS011;10784;50.578;17.878;2022-10-16T20:05:34;16.20;;;8.20;;
21251;SDS011;10784;50.578;17.878;2022-10-16T20:08:07;16.52;;;8.25;;
21251;SDS011;10784;50.578;17.878;2022-10-16T20:10:46;21.97;;;9.63;;
21251;SDS011;10784;50.578;17.878;2022-10-16T20:13:19;17.80;;;8.93;;
21251;SDS011;10784;50.578;17.878;2022-10-16T20:15:52;18.73;;;8.95;;
21251;SDS011;10784;50.578;17.878;2022-10-16T20:18:25;15.52;;;8.73;;
21251;SDS011;10784;50.578;17.878;2022-10-16T20:20:58;15.35;;;8.45;;
21251;SDS011;10784;50.578;17.878;2022-10-16T20:23:30;15.35;;;8.50;;
21251;SDS011;10784;50.578;17.878;2022-10-16T20:26:03;18.83;;;8.00;;
21251;SDS011;10784;50.578;17.878;2022-10-16T20:28:37;18.58;;;9.07;;
21251;SDS011;10784;50.578;17.878;2022-10-16T20:31:14;17.58;;;8.50;;
21251;SDS011;10784;50.578;17.878;2022-10-16T20:33:49;19.77;;;9.05;;
21251;SDS011;10784;50.578;17.878;2022-10-16T20:36:23;19.23;;;8.88;;
21251;SDS011;10784;50.578;17.878;2022-10-16T20:38:56;15.85;;;7.68;;
21251;SDS011;10784;50.578;17.878;2022-10-16T20:41:29;17.42;;;9.45;;
21251;SDS011;10784;50.578;17.878;2022-10-16T20:44:02;17.53;;;9.17;;
21251;SDS011;10784;50.578;17.878;2022-10-16T20:46:35;15.30;;;9.00;;
21251;SDS011;10784;50.578;17.878;2022-10-16T20:49:07;18.70;;;9.18;;
21251;SDS011;10784;50.578;17.878;2022-10-16T20:51:58;16.65;;;8.75;;
21251;SDS011;10784;50.578;17.878;2022-10-16T20:54:31;15.75;;;8.77;;
21251;SDS011;10784;50.578;17.878;2022-10-16T20:57:04;17.52;;;8.85;;
21251;SDS011;10784;50.578;17.878;2022-10-16T20:59:36;17.08;;;9.05;;
21251;SDS011;10784;50.578;17.878;2022-10-16T21:02:09;17.27;;;8.27;;
21251;SDS011;10784;50.578;17.878;2022-10-16T21:04:46;20.60;;;8.52;;
21251;SDS011;10784;50.578;17.878;2022-10-16T21:07:18;15.07;;;8.60;;
21251;SDS011;10784;50.578;17.878;2022-10-16T21:09:53;17.83;;;8.95;;
21251;SDS011;10784;50.578;17.878;2022-10-16T21:12:26;17.00;;;8.32;;
21251;SDS011;10784;50.578;17.878;2022-10-16T21:14:59;19.73;;;8.80;;
21251;SDS011;10784;50.578;17.878;2022-10-16T21:17:46;17.58;;;8.95;;
21251;SDS011;10784;50.578;17.878;2022-10-16T21:20:19;19.52;;;9.10;;
21251;SDS011;10784;50.578;17.878;2022-10-16T21:22:52;20.05;;;9.25;;
21251;SDS011;10784;50.578;17.878;2022-10-16T21:25:25;16.20;;;9.20;;
21251;SDS011;10784;50.578;17.878;2022-10-16T21:27:57;17.73;;;9.13;;
21251;SDS011;10784;50.578;17.878;2022-10-16T21:30:30;17.02;;;9.23;;
21251;SDS011;10784;50.578;17.878;2022-10-16T21:33:03;15.40;;;8.55;;
21251;SDS011;10784;50.578;17.878;2022-10-16T21:35:36;19.35;;;10.05;;
21251;SDS011;10784;50.578;17.878;2022-10-16T21:38:08;17.50;;;9.70;;
21251;SDS011;10784;50.578;17.878;2022-10-16T21:40:42;15.37;;;8.50;;
21251;SDS011;10784;50.578;17.878;2022-10-16T21:43:14;16.00;;;8.43;;
21251;SDS011;10784;50.578;17.878;2022-10-16T21:45:47;16.52;;;8.70;;
21251;SDS011;10784;50.578;17.878;2022-10-16T21:48:19;17.30;;;8.77;;
21251;SDS011;10784;50.578;17.878;2022-10-16T21:50:52;16.20;;;8.75;;
21251;SDS011;10784;50.578;17.878;2022-10-16T21:53:25;18.67;;;9.23;;
21251;SDS011;10784;50.578;17.878;2022-10-16T21:55:58;18.52;;;8.88;;
21251;SDS011;10784;50.578;17.878;2022-10-16T21:58:31;18.52;;;8.98;;
21251;SDS011;10784;50.578;17.878;2022-10-16T22:01:05;19.98;;;9.07;;
21251;SDS011;10784;50.578;17.878;2022-10-16T22:03:37;18.75;;;8.95;;
21251;SDS011;10784;50.578;17.878;2022-10-16T22:06:11;16.75;;;8.57;;
21251;SDS011;10784;50.578;17.878;2022-10-16T22:08:45;16.92;;;8.55;;
21251;SDS011;10784;50.578;17.878;2022-10-16T22:11:19;15.10;;;8.13;;
21251;SDS011;10784;50.578;17.878;2022-10-16T22:13:54;16.17;;;8.15;;
21251;SDS011;10784;50.578;17.878;2022-10-16T22:16:28;20.30;;;9.20;;
21251;SDS011;10784;50.578;17.878;2022-10-16T22:19:00;19.08;;;8.98;;
21251;SDS011;10784;50.578;17.878;2022-10-16T22:21:35;16.88;;;8.68;;
21251;SDS011;10784;50.578;17.878;2022-10-16T22:24:08;13.50;;;7.60;;
21251;SDS011;10784;50.578;17.878;2022-10-16T22:26:41;14.65;;;7.32;;
21251;SDS011;10784;50.578;17.878;2022-10-16T22:29:14;19.92;;;8.30;;
21251;SDS011;10784;50.578;17.878;2022-10-16T22:31:51;16.10;;;8.67;;
21251;SDS011;10784;50.578;17.878;2022-10-16T22:34:23;13.63;;;7.57;;
21251;SDS011;10784;50.578;17.878;2022-10-16T22:36:56;17.48;;;8.50;;
21251;SDS011;10784;50.578;17.878;2022-10-16T22:39:29;15.68;;;8.60;;
21251;SDS011;10784;50.578;17.878;2022-10-16T22:42:02;15.18;;;7.88;;
21251;SDS011;10784;50.578;17.878;2022-10-16T22:44:35;15.20;;;7.95;;
21251;SDS011;10784;50.578;17.878;2022-10-16T22:47:08;17.83;;;8.13;;
21251;SDS011;10784;50.578;17.878;2022-10-16T22:49:40;17.02;;;7.95;;
21251;SDS011;10784;50.578;17.878;2022-10-16T22:52:13;17.80;;;7.43;;
21251;SDS011;10784;50.578;17.878;2022-10-16T22:54:46;16.00;;;7.97;;
21251;SDS011;10784;50.578;17.878;2022-10-16T22:57:19;17.40;;;9.10;;
21251;SDS011;10784;50.578;17.878;2022-10-16T22:59:52;14.93;;;7.50;;
21251;SDS011;10784;50.578;17.878;2022-10-16T23:02:24;13.68;;;7.38;;
21251;SDS011;10784;50.578;17.878;2022-10-16T23:04:58;14.88;;;7.03;;
21251;SDS011;10784;50.578;17.878;2022-10-16T23:07:30;15.35;;;7.53;;
21251;SDS011;10784;50.578;17.878;2022-10-16T23:10:03;14.07;;;7.33;;
21251;SDS011;10784;50.578;17.878;2022-10-16T23:12:36;14.15;;;6.72;;
21251;SDS011;10784;50.578;17.878;2022-10-16T23:15:09;15.27;;;7.17;;
21251;SDS011;10784;50.578;17.878;2022-10-16T23:17:42;15.03;;;6.80;;
21251;SDS011;10784;50.578;17.878;2022-10-16T23:20:14;14.43;;;6.70;;
21251;SDS011;10784;50.578;17.878;2022-10-16T23:22:47;16.17;;;7.80;;
21251;SDS011;10784;50.578;17.878;2022-10-16T23:25:20;14.75;;;7.20;;
21251;SDS011;10784;50.578;17.878;2022-10-16T23:27:53;14.70;;;7.10;;
21251;SDS011;10784;50.578;17.878;2022-10-16T23:30:26;12.07;;;6.60;;
21251;SDS011;10784;50.578;17.878;2022-10-16T23:32:59;18.65;;;7.20;;
21251;SDS011;10784;50.578;17.878;2022-10-16T23:35:32;15.23;;;7.43;;
21251;SDS011;10784;50.578;17.878;2022-10-16T23:38:05;14.93;;;7.13;;
21251;SDS011;10784;50.578;17.878;2022-10-16T23:40:37;13.70;;;7.22;;
21251;SDS011;10784;50.578;17.878;2022-10-16T23:43:10;11.88;;;6.93;;
21251;SDS011;10784;50.578;17.878;2022-10-16T23:45:43;19.83;;;7.35;;
21251;SDS011;10784;50.578;17.878;2022-10-16T23:48:16;14.73;;;6.75;;
21251;SDS011;10784;50.578;17.878;2022-10-16T23:50:48;11.40;;;6.65;;
21251;SDS011;10784;50.578;17.878;2022-10-16T23:53:21;13.25;;;6.80;;
21251;SDS011;10784;50.578;17.878;2022-10-16T23:55:54;11.82;;;6.57;;
21251;SDS011;10784;50.578;17.878;2022-10-16T23:58:27;14.57;;;6.90;;
